createdAt,value
2023-07-24T00:01:08.617Z,4.85
2023-07-24T00:06:10.338Z,4.95
2023-07-24T00:11:12.024Z,4.40
2023-07-24T00:16:13.698Z,4.80
2023-07-24T00:21:15.448Z,4.75
2023-07-24T00:26:17.315Z,4.65
2023-07-24T00:31:18.968Z,5.05
2023-07-24T00:36:20.725Z,4.88
2023-07-24T00:41:22.385Z,5.05
2023-07-24T00:46:24.571Z,4.68
2023-07-24T00:51:29.150Z,4.63
2023-07-24T00:56:33.071Z,5.35
2023-07-24T01:01:35.072Z,4.47
2023-07-24T01:06:36.689Z,5.28
2023-07-24T01:11:43.803Z,4.88
2023-07-24T01:16:48.149Z,4.50
2023-07-24T01:22:36.216Z,5.03
2023-07-24T01:27:45.308Z,4.70
2023-07-24T01:32:47.153Z,4.13
2023-07-24T01:37:49.908Z,3.90
2023-07-24T01:42:51.967Z,4.35
2023-07-24T01:47:53.669Z,4.38
2023-07-24T01:52:55.368Z,3.95
2023-07-24T01:57:57.304Z,4.00
2023-07-24T02:02:59.284Z,4.43
2023-07-24T02:08:00.949Z,4.40
2023-07-24T02:13:02.730Z,4.55
2023-07-24T02:18:04.351Z,4.07
2023-07-24T02:23:06.002Z,4.30
2023-07-24T02:28:07.665Z,4.22
2023-07-24T02:33:09.302Z,3.65
2023-07-24T02:38:11.127Z,3.83
2023-07-24T02:43:12.775Z,3.78
2023-07-24T02:48:14.473Z,3.80
2023-07-24T02:53:16.655Z,3.63
2023-07-24T02:58:18.327Z,3.67
2023-07-24T03:03:20.127Z,3.67
2023-07-24T03:08:21.767Z,3.90
2023-07-24T03:13:23.469Z,3.70
2023-07-24T03:18:25.820Z,3.90
2023-07-24T03:23:27.653Z,3.40
2023-07-24T03:28:29.288Z,2.90
2023-07-24T03:33:30.867Z,2.50
2023-07-24T03:38:35.825Z,2.75
2023-07-24T03:43:37.970Z,2.63
2023-07-24T03:48:39.709Z,2.90
2023-07-24T03:53:41.851Z,3.25
2023-07-24T03:58:43.572Z,2.92
2023-07-24T04:03:45.255Z,2.47
2023-07-24T04:08:46.993Z,3.08
2023-07-24T04:13:48.610Z,2.75
2023-07-24T04:18:50.360Z,2.60
2023-07-24T04:23:52.107Z,2.97
2023-07-24T04:28:53.813Z,2.67
2023-07-24T04:33:55.423Z,3.38
2023-07-24T04:38:57.332Z,3.40
2023-07-24T04:43:59.122Z,3.40
2023-07-24T04:49:00.927Z,2.88
2023-07-24T04:54:02.562Z,3.58
2023-07-24T04:59:04.273Z,3.60
2023-07-24T05:04:05.955Z,3.20
2023-07-24T05:09:07.740Z,3.05
2023-07-24T05:14:09.450Z,3.30
2023-07-24T05:19:11.131Z,3.40
2023-07-24T05:24:12.798Z,3.20
2023-07-24T05:29:15.606Z,3.28
2023-07-24T05:34:17.291Z,3.78
2023-07-24T05:39:19.029Z,3.38
2023-07-24T05:44:20.647Z,3.65
2023-07-24T05:49:22.848Z,4.32
2023-07-24T05:54:24.509Z,4.40
2023-07-24T05:59:26.141Z,4.35
2023-07-24T06:04:27.932Z,4.20
2023-07-24T06:09:29.840Z,4.45
2023-07-24T06:14:31.537Z,5.07
2023-07-24T06:19:33.277Z,5.15
2023-07-24T06:24:35.053Z,5.05
2023-07-24T06:29:38.089Z,4.90
2023-07-24T06:34:41.602Z,5.15
2023-07-24T06:39:43.332Z,5.55
2023-07-24T06:44:44.979Z,5.43
2023-07-24T06:49:46.636Z,5.85
2023-07-24T06:54:48.392Z,5.85
2023-07-24T06:59:50.064Z,6.35
2023-07-24T07:04:51.753Z,6.05
2023-07-24T07:09:53.481Z,6.30
2023-07-24T07:14:55.287Z,6.53
2023-07-24T07:19:58.639Z,6.60
2023-07-24T07:25:00.414Z,5.72
2023-07-24T07:30:02.131Z,5.85
2023-07-24T07:35:04.600Z,5.88
2023-07-24T07:40:07.515Z,6.28
2023-07-24T07:45:09.663Z,6.60
2023-07-24T07:50:11.433Z,6.20
2023-07-24T07:55:14.919Z,6.05
2023-07-24T08:00:16.942Z,6.13
2023-07-24T08:05:21.258Z,6.60
2023-07-24T08:10:23.610Z,6.65
2023-07-24T08:15:25.373Z,6.10
2023-07-24T08:20:27.119Z,6.22
2023-07-24T08:25:28.929Z,7.05
2023-07-24T08:30:30.588Z,6.90
2023-07-24T08:35:32.277Z,6.75
2023-07-24T08:40:34.086Z,6.20
2023-07-24T08:45:36.097Z,6.40
2023-07-24T08:50:38.745Z,6.60
2023-07-24T08:55:40.911Z,6.43
2023-07-24T09:00:43.229Z,7.03
2023-07-24T09:05:44.964Z,6.82
2023-07-24T09:10:51.519Z,7.18
2023-07-24T09:15:53.567Z,7.95
2023-07-24T09:20:55.934Z,23.92
2023-07-24T09:25:57.809Z,13.20
2023-07-24T09:31:02.138Z,8.27
2023-07-24T09:36:06.047Z,8.63
2023-07-24T09:41:08.176Z,9.00
2023-07-24T09:46:11.813Z,8.13
2023-07-24T09:51:16.787Z,8.32
2023-07-24T09:56:19.293Z,7.82
2023-07-24T10:01:21.307Z,8.60
2023-07-24T10:06:23.722Z,7.85
2023-07-24T10:11:26.254Z,8.77
2023-07-24T10:16:28.132Z,8.68
2023-07-24T10:21:30.342Z,11.18
2023-07-24T10:26:32.422Z,8.98
2023-07-24T10:31:34.480Z,9.20
2023-07-24T10:36:37.609Z,8.15
2023-07-24T10:41:41.098Z,8.50
2023-07-24T10:46:45.912Z,8.57
2023-07-24T10:51:47.590Z,9.30
2023-07-24T10:56:52.054Z,8.90
2023-07-24T11:01:54.173Z,8.60
2023-07-24T11:06:58.720Z,8.80
2023-07-24T11:12:00.593Z,8.90
2023-07-24T11:17:02.332Z,9.68
2023-07-24T11:22:04.965Z,8.80
2023-07-24T11:27:13.505Z,9.25
2023-07-24T11:32:21.831Z,10.05
2023-07-24T11:37:23.661Z,11.07
2023-07-24T11:42:28.810Z,10.13
2023-07-24T11:47:33.510Z,12.57
2023-07-24T11:52:45.657Z,9.97
2023-07-24T11:58:01.094Z,13.73
2023-07-24T12:03:05.948Z,10.15
2023-07-24T12:08:08.556Z,10.55
2023-07-24T12:13:10.897Z,9.65
2023-07-24T12:18:12.564Z,10.05
2023-07-24T12:23:14.425Z,9.23
2023-07-24T12:28:16.276Z,9.27
2023-07-24T12:33:18.270Z,9.30
2023-07-24T12:38:20.392Z,9.05
2023-07-24T12:43:22.095Z,9.10
2023-07-24T12:48:23.840Z,9.48
2023-07-24T12:53:31.698Z,8.95
2023-07-24T12:58:35.374Z,8.82
2023-07-24T13:03:37.098Z,9.35
2023-07-24T13:08:38.873Z,8.65
2023-07-24T13:13:40.551Z,9.52
2023-07-24T13:18:42.199Z,10.75
2023-07-24T13:23:44.037Z,9.70
2023-07-24T13:28:45.666Z,8.35
2023-07-24T13:33:48.211Z,8.38
2023-07-24T13:38:51.900Z,8.65
2023-07-24T13:43:53.786Z,8.10
2023-07-24T13:48:55.674Z,8.23
2023-07-24T13:53:57.365Z,8.45
2023-07-24T13:58:59.951Z,7.22
2023-07-24T14:04:02.448Z,7.72
2023-07-24T14:09:04.575Z,8.00
2023-07-24T14:14:06.283Z,10.55
2023-07-24T14:19:08.366Z,7.43
2023-07-24T14:24:11.024Z,30.42
2023-07-24T14:29:13.998Z,8.18
2023-07-24T14:34:16.289Z,7.80
2023-07-24T14:39:18.738Z,6.97
2023-07-24T14:44:21.411Z,6.97
2023-07-24T14:49:24.261Z,6.10
2023-07-24T14:54:27.034Z,5.55
2023-07-24T14:59:30.099Z,5.65
2023-07-24T15:04:32.494Z,7.95
2023-07-24T15:09:35.226Z,5.53
2023-07-24T15:14:38.235Z,5.90
2023-07-24T15:19:41.305Z,6.30
2023-07-24T15:24:44.730Z,25.17
2023-07-24T15:29:49.470Z,8.60
2023-07-24T15:34:52.467Z,7.50
2023-07-24T15:39:55.958Z,6.30
2023-07-24T15:44:57.889Z,7.20
2023-07-24T15:50:02.360Z,5.60
2023-07-24T15:55:04.322Z,5.90
2023-07-24T16:00:08.697Z,5.50
2023-07-24T16:05:21.522Z,5.53
2023-07-24T16:10:24.189Z,10.70
2023-07-24T16:20:30.698Z,5.53
2023-07-24T16:25:32.666Z,5.75
2023-07-24T16:30:35.654Z,4.70
2023-07-24T16:35:37.698Z,5.32
2023-07-24T16:40:39.929Z,5.07
2023-07-24T16:45:42.839Z,4.57
2023-07-24T16:51:05.723Z,4.40
2023-07-24T16:56:08.666Z,4.25
2023-07-24T17:01:11.799Z,4.15
2023-07-24T17:06:15.013Z,4.68
2023-07-24T17:11:18.466Z,4.60
2023-07-24T17:16:21.491Z,4.43
2023-07-24T17:21:24.753Z,4.72
2023-07-24T17:26:32.928Z,4.43
2023-07-24T17:31:35.962Z,4.70
2023-07-24T17:36:39.110Z,4.18
2023-07-24T17:41:42.224Z,5.43
2023-07-24T17:46:47.360Z,4.32
2023-07-24T17:51:52.084Z,3.97
2023-07-24T17:56:56.592Z,3.63
2023-07-24T18:02:01.628Z,4.20
2023-07-24T18:07:07.048Z,3.63
2023-07-24T18:12:10.907Z,4.47
2023-07-24T18:17:16.092Z,3.95
2023-07-24T18:22:21.070Z,4.32
2023-07-24T18:27:24.386Z,4.40
2023-07-24T18:32:27.643Z,4.80
2023-07-24T18:37:31.013Z,4.78
2023-07-24T18:42:34.353Z,4.93
2023-07-24T18:47:38.254Z,4.55
2023-07-24T18:52:42.127Z,4.95
2023-07-24T18:57:45.422Z,3.88
2023-07-24T19:02:49.504Z,4.38
2023-07-24T19:07:54.100Z,3.55
2023-07-24T19:12:57.403Z,3.78
2023-07-24T19:18:03.422Z,3.20
2023-07-24T19:23:06.789Z,3.60
2023-07-24T19:28:11.148Z,3.70
2023-07-24T19:33:16.335Z,3.90
2023-07-24T19:38:19.684Z,3.63
2023-07-24T19:43:27.527Z,3.15
2023-07-24T19:48:30.788Z,3.88
2023-07-24T19:53:34.153Z,3.70
2023-07-24T19:58:37.449Z,3.78
2023-07-24T20:03:43.410Z,3.20
2023-07-24T20:08:46.740Z,3.83
2023-07-24T20:13:52.574Z,3.60
2023-07-24T20:24:12.369Z,3.20
2023-07-24T20:29:16.862Z,3.17
2023-07-24T20:34:20.083Z,3.05
2023-07-24T20:39:23.284Z,3.75
2023-07-24T20:44:26.584Z,3.63
2023-07-24T20:49:29.747Z,2.70
2023-07-24T20:54:32.967Z,2.80
2023-07-24T20:59:36.053Z,3.03
2023-07-24T21:04:37.925Z,2.53
2023-07-24T21:09:39.767Z,2.30
2023-07-24T21:14:41.387Z,2.85
2023-07-24T21:19:43.723Z,2.15
2023-07-24T21:24:46.227Z,2.42
2023-07-24T21:29:50.581Z,1.80
2023-07-24T21:34:52.368Z,2.35
2023-07-24T21:39:53.998Z,1.77
2023-07-24T21:44:55.656Z,2.22
2023-07-24T21:49:57.253Z,2.10
2023-07-24T21:54:58.950Z,1.92
2023-07-24T22:00:00.536Z,2.05
2023-07-24T22:05:02.208Z,2.33
2023-07-24T22:10:04.172Z,2.33
2023-07-24T22:15:06.488Z,2.35
2023-07-24T22:20:08.663Z,2.17
2023-07-24T22:25:10.371Z,2.45
2023-07-24T22:30:12.480Z,1.88
2023-07-24T22:35:15.003Z,2.70
2023-07-24T22:40:16.762Z,2.70
2023-07-24T22:45:18.384Z,2.30
2023-07-24T22:50:20.059Z,2.58
2023-07-24T22:55:21.716Z,1.83
2023-07-24T23:00:23.536Z,1.88
2023-07-24T23:05:25.289Z,2.20
2023-07-24T23:10:26.943Z,1.85
2023-07-24T23:15:28.618Z,2.25
2023-07-24T23:20:30.229Z,2.38
2023-07-24T23:25:31.819Z,2.42
2023-07-24T23:30:41.193Z,1.70
2023-07-24T23:35:42.827Z,1.73
2023-07-24T23:40:44.454Z,1.90
2023-07-24T23:45:46.015Z,1.80
2023-07-24T23:50:47.769Z,1.80
2023-07-24T23:55:49.330Z,2.25
